Time;durP1;ratioP1;P1;durP2;ratioP2;P2;SDS_P1;SDS_P2;PMS_P1;PMS_P2;Temp;Humidity;BMP_temperature;BMP_pressure;BME280_temperature;BME280_humidity;BME280_pressure;Samples;Min_cycle;Max_cycle;Signal;HPM_P1;HPM_P2
2023/05/19 00:01:54;;;;;;;3.20;2.30;;;15.80;29.90;;;;;;10403828;28;20261;-71
2023/05/19 00:07:00;;;;;;;2.80;2.40;;;15.80;30.10;;;;;;10409612;28;20228;-71
2023/05/19 00:12:04;;;;;;;3.30;2.57;;;15.80;30.10;;;;;;10398758;28;20221;-70
2023/05/19 00:17:09;;;;;;;3.23;2.30;;;15.70;29.90;;;;;;10410340;28;21160;-71
2023/05/19 00:22:12;;;;;;;4.87;2.43;;;15.80;30.20;;;;;;10406150;28;20232;-71
2023/05/19 00:27:16;;;;;;;3.37;2.57;;;15.80;30.00;;;;;;10410994;28;20717;-71
2023/05/19 00:32:20;;;;;;;2.77;2.57;;;15.70;29.90;;;;;;10402882;28;20230;-71
2023/05/19 00:37:23;;;;;;;3.50;2.53;;;15.70;30.10;;;;;;10411092;28;20740;-71
2023/05/19 00:42:27;;;;;;;3.97;2.40;;;15.70;30.00;;;;;;10403432;28;20237;-71
2023/05/19 00:47:31;;;;;;;4.00;2.50;;;15.70;30.00;;;;;;10407007;28;20265;-72
2023/05/19 00:52:35;;;;;;;4.33;2.70;;;15.60;30.20;;;;;;10414027;28;20270;-72
2023/05/19 00:57:38;;;;;;;3.87;2.50;;;15.50;30.00;;;;;;10415297;28;20312;-71
2023/05/19 01:02:43;;;;;;;3.40;2.50;;;15.50;30.30;;;;;;10407369;28;20766;-71
2023/05/19 01:07:52;;;;;;;3.03;2.50;;;15.50;30.60;;;;;;10419217;28;20225;-72
2023/05/19 01:12:55;;;;;;;3.20;2.60;;;15.50;30.60;;;;;;10425938;28;20225;-71
2023/05/19 01:18:06;;;;;;;2.70;2.40;;;15.50;30.50;;;;;;10415814;28;20221;-72
2023/05/19 01:23:28;;;;;;;3.10;2.80;;;15.40;31.00;;;;;;10416552;28;20260;-72
2023/05/19 01:29:10;;;;;;;3.13;2.43;;;15.40;31.20;;;;;;10420212;28;20253;-71
2023/05/19 01:34:16;;;;;;;2.57;2.33;;;15.30;31.10;;;;;;10399641;28;20299;-72
2023/05/19 01:39:20;;;;;;;4.30;2.70;;;15.30;31.00;;;;;;10418200;28;20240;-71
2023/05/19 01:44:23;;;;;;;3.97;2.50;;;15.20;30.60;;;;;;10414396;28;20309;-71
2023/05/19 01:49:28;;;;;;;2.60;2.40;;;15.10;30.60;;;;;;10414117;28;20523;-71
2023/05/19 01:54:31;;;;;;;4.30;2.83;;;15.00;30.90;;;;;;10412087;28;20236;-71
2023/05/19 01:59:47;;;;;;;3.93;2.40;;;15.00;30.90;;;;;;10406684;28;20693;-71
2023/05/19 02:04:59;;;;;;;3.77;2.40;;;14.90;32.00;;;;;;10417174;28;20642;-72
2023/05/19 02:10:06;;;;;;;4.30;2.90;;;14.90;32.00;;;;;;10409364;28;20229;-71
2023/05/19 02:15:14;;;;;;;3.60;2.70;;;14.80;32.00;;;;;;10410274;28;20225;-72
2023/05/19 02:20:18;;;;;;;2.90;2.47;;;14.80;31.90;;;;;;10406678;28;20221;-71
2023/05/19 02:25:22;;;;;;;2.50;2.30;;;14.80;31.90;;;;;;10408788;28;20719;-71
2023/05/19 02:30:25;;;;;;;3.40;2.77;;;14.80;31.90;;;;;;10418412;28;20261;-72
2023/05/19 02:35:29;;;;;;;4.30;2.90;;;14.80;31.90;;;;;;10423870;28;20239;-71
2023/05/19 02:40:32;;;;;;;4.77;2.60;;;14.80;31.90;;;;;;10416734;28;20795;-71
2023/05/19 02:45:36;;;;;;;3.20;2.60;;;14.80;31.90;;;;;;10407871;28;20642;-71
2023/05/19 02:50:41;;;;;;;3.33;2.77;;;14.80;31.90;;;;;;10407792;28;20677;-71
2023/05/19 02:55:44;;;;;;;3.23;2.70;;;14.80;32.10;;;;;;10418173;28;20240;-72
2023/05/19 03:00:48;;;;;;;4.70;2.80;;;14.80;31.90;;;;;;10403835;28;20217;-72
2023/05/19 03:05:53;;;;;;;3.97;2.80;;;14.80;31.90;;;;;;10408794;28;20572;-72
2023/05/19 03:10:56;;;;;;;4.43;2.57;;;14.80;32.60;;;;;;10415449;28;20232;-72
2023/05/19 03:16:00;;;;;;;3.83;3.10;;;14.80;32.20;;;;;;10421070;28;20229;-71
2023/05/19 03:21:05;;;;;;;3.33;2.60;;;14.70;32.40;;;;;;10411446;28;20252;-71
2023/05/19 03:26:08;;;;;;;3.77;3.10;;;14.70;32.70;;;;;;10412207;28;20230;-71
2023/05/19 03:31:13;;;;;;;2.93;2.60;;;14.70;32.50;;;;;;10404756;28;20232;-71
2023/05/19 03:36:18;;;;;;;2.70;2.50;;;14.70;32.90;;;;;;10410208;28;20232;-71
2023/05/19 03:41:21;;;;;;;3.67;3.00;;;14.80;33.10;;;;;;10406380;28;20226;-71
2023/05/19 03:46:24;;;;;;;2.50;2.30;;;14.70;32.70;;;;;;10413476;28;20237;-71
2023/05/19 03:51:29;;;;;;;3.83;2.90;;;14.80;32.70;;;;;;10403201;28;20256;-71
2023/05/19 03:56:33;;;;;;;4.63;3.03;;;14.80;33.20;;;;;;10422032;28;20296;-71
2023/05/19 04:01:36;;;;;;;3.33;2.70;;;14.80;33.00;;;;;;10422323;28;20309;-71
2023/05/19 04:06:41;;;;;;;2.80;2.60;;;14.80;33.00;;;;;;10436077;28;20586;-71
2023/05/19 04:11:44;;;;;;;3.00;2.70;;;14.80;33.40;;;;;;10422752;28;20227;-70
2023/05/19 04:16:48;;;;;;;3.53;2.50;;;14.80;33.10;;;;;;10417072;28;20225;-70
2023/05/19 04:21:52;;;;;;;5.47;3.10;;;14.80;33.10;;;;;;10416965;28;20280;-70
2023/05/19 04:26:56;;;;;;;4.80;2.70;;;14.80;33.60;;;;;;10405350;28;20224;-72
2023/05/19 04:31:59;;;;;;;3.20;2.60;;;14.70;33.30;;;;;;10408778;28;20700;-72
2023/05/19 04:37:05;;;;;;;2.97;2.40;;;14.80;33.40;;;;;;10403654;28;20222;-72
2023/05/19 04:42:10;;;;;;;3.50;2.57;;;14.70;33.70;;;;;;10402267;28;20231;-72
2023/05/19 04:47:13;;;;;;;4.97;2.60;;;14.70;33.50;;;;;;10403866;28;20226;-71
2023/05/19 04:52:20;;;;;;;3.63;3.00;;;14.80;33.60;;;;;;10403554;28;20217;-71
2023/05/19 04:57:23;;;;;;;3.53;3.03;;;14.80;34.30;;;;;;10391302;28;20669;-71
2023/05/19 05:02:27;;;;;;;3.60;2.90;;;14.80;33.80;;;;;;10400111;28;20883;-71
2023/05/19 05:07:32;;;;;;;4.20;2.77;;;14.80;33.80;;;;;;10406090;28;20237;-72
2023/05/19 05:12:36;;;;;;;3.53;2.80;;;14.80;34.30;;;;;;10400642;28;20228;-73
2023/05/19 05:17:40;;;;;;;3.37;2.73;;;14.80;33.90;;;;;;10407657;28;20229;-72
2023/05/19 05:22:45;;;;;;;4.83;3.07;;;14.80;34.20;;;;;;10401081;28;20248;-72
2023/05/19 05:27:49;;;;;;;3.97;2.70;;;14.90;34.70;;;;;;10391612;28;20237;-71
2023/05/19 05:32:53;;;;;;;4.47;2.73;;;14.90;34.30;;;;;;10398336;28;20236;-71
2023/05/19 05:37:58;;;;;;;4.33;2.77;;;14.90;34.70;;;;;;10407321;28;20225;-71
2023/05/19 05:43:01;;;;;;;4.27;3.10;;;15.00;34.70;;;;;;10405542;28;20582;-71
2023/05/19 05:48:05;;;;;;;4.53;3.10;;;15.00;34.30;;;;;;10408707;28;20229;-71
2023/05/19 05:53:15;;;;;;;4.10;3.03;;;15.00;34.30;;;;;;10403588;28;20237;-71
2023/05/19 05:58:20;;;;;;;4.43;3.10;;;15.10;34.90;;;;;;10401298;28;20682;-71
2023/05/19 06:03:23;;;;;;;4.23;3.50;;;15.20;34.40;;;;;;10399685;28;20229;-71
2023/05/19 06:08:28;;;;;;;4.90;3.47;;;15.20;34.20;;;;;;10399406;28;20237;-72
2023/05/19 06:13:31;;;;;;;5.40;3.30;;;15.20;34.30;;;;;;10394449;28;20224;-72
2023/05/19 06:18:34;;;;;;;5.60;3.70;;;15.30;34.10;;;;;;10400213;28;20716;-72
2023/05/19 06:23:39;;;;;;;7.13;3.80;;;15.30;34.10;;;;;;10406161;28;20236;-72
2023/05/19 06:28:42;;;;;;;4.00;3.53;;;15.30;34.40;;;;;;10400870;28;20257;-72
2023/05/19 06:33:45;;;;;;;4.23;3.50;;;15.40;34.20;;;;;;10397320;28;20217;-72
2023/05/19 06:38:49;;;;;;;4.63;3.67;;;15.40;34.10;;;;;;10405407;28;20310;-73
2023/05/19 06:43:53;;;;;;;6.17;3.90;;;15.40;34.40;;;;;;10396228;28;20607;-72
2023/05/19 06:48:56;;;;;;;6.03;3.90;;;15.50;34.40;;;;;;10398329;28;20606;-72
2023/05/19 06:54:00;;;;;;;4.10;3.63;;;15.60;34.50;;;;;;10397821;28;20235;-72
2023/05/19 06:59:03;;;;;;;5.43;3.60;;;15.70;34.50;;;;;;10404223;28;20603;-72
2023/05/19 07:04:07;;;;;;;5.57;3.77;;;15.80;34.30;;;;;;10394623;28;20232;-72
2023/05/19 07:09:11;;;;;;;6.23;3.90;;;15.80;34.30;;;;;;10399987;28;20237;-73
2023/05/19 07:14:15;;;;;;;5.70;4.03;;;15.90;34.10;;;;;;10392742;28;20329;-72
2023/05/19 07:19:18;;;;;;;4.07;3.67;;;16.00;33.90;;;;;;10406131;28;20236;-72
2023/05/19 07:24:23;;;;;;;4.63;3.77;;;16.00;34.20;;;;;;10403329;28;20234;-72
2023/05/19 07:29:27;;;;;;;5.20;3.47;;;16.10;34.50;;;;;;10408781;28;20261;-72
2023/05/19 07:34:30;;;;;;;4.20;3.77;;;16.10;34.10;;;;;;10406949;28;20233;-72
2023/05/19 07:39:35;;;;;;;4.57;4.07;;;16.10;33.50;;;;;;10409888;28;20234;-72
2023/05/19 07:44:38;;;;;;;3.53;3.23;;;16.10;33.80;;;;;;10409281;28;20228;-70
2023/05/19 07:49:41;;;;;;;3.73;3.13;;;16.10;33.80;;;;;;10409781;28;20225;-70
2023/05/19 07:54:46;;;;;;;5.00;3.63;;;16.10;33.90;;;;;;10405274;28;20244;-70
2023/05/19 07:59:49;;;;;;;4.70;3.80;;;16.10;33.90;;;;;;10405612;28;20224;-71
2023/05/19 08:04:52;;;;;;;4.27;3.47;;;16.20;34.00;;;;;;10411456;28;20247;-71
2023/05/19 08:09:57;;;;;;;3.60;3.30;;;16.20;33.90;;;;;;10402248;28;20271;-70
2023/05/19 08:15:00;;;;;;;4.73;3.53;;;16.20;34.10;;;;;;10417265;28;20225;-70
2023/05/19 08:20:05;;;;;;;4.60;3.07;;;16.20;33.90;;;;;;10444718;28;20256;-70
2023/05/19 08:25:10;;;;;;;3.90;3.37;;;16.30;34.20;;;;;;10447375;28;20577;-70
2023/05/19 08:30:13;;;;;;;4.53;3.37;;;16.30;34.00;;;;;;10445568;28;20320;-68
2023/05/19 08:35:17;;;;;;;5.07;3.40;;;16.30;33.80;;;;;;10446692;28;20701;-72
2023/05/19 08:40:22;;;;;;;3.60;2.90;;;16.30;33.70;;;;;;10443004;28;20589;-71
2023/05/19 08:45:26;;;;;;;5.07;3.30;;;16.40;34.00;;;;;;10449296;28;20696;-71
2023/05/19 08:50:31;;;;;;;3.83;3.53;;;16.50;33.60;;;;;;10444459;28;20243;-71
2023/05/19 08:55:43;;;;;;;4.23;3.20;;;16.50;33.40;;;;;;10448025;28;20245;-71
2023/05/19 09:00:47;;;;;;;3.93;2.73;;;16.50;33.40;;;;;;10459431;28;20232;-70
2023/05/19 09:05:51;;;;;;;3.93;3.27;;;16.50;33.40;;;;;;10490109;28;20228;-69
2023/05/19 09:10:57;;;;;;;4.20;3.17;;;16.50;33.50;;;;;;10490592;28;20322;-70
2023/05/19 09:16:00;;;;;;;3.63;3.00;;;16.60;33.50;;;;;;10443401;28;20231;-70
2023/05/19 09:21:30;;;;;;;3.40;3.00;;;16.60;33.50;;;;;;10432410;28;21239;-70
2023/05/19 09:26:38;;;;;;;4.67;2.87;;;16.70;33.60;;;;;;10435041;28;20335;-70
2023/05/19 09:31:49;;;;;;;3.40;3.00;;;16.80;33.70;;;;;;10445082;28;20285;-70
2023/05/19 09:36:53;;;;;;;2.93;2.70;;;16.80;33.70;;;;;;10437294;28;20225;-71
2023/05/19 09:41:57;;;;;;;4.10;2.60;;;16.80;33.70;;;;;;10443710;28;20231;-70
2023/05/19 09:47:01;;;;;;;3.60;2.60;;;16.80;33.70;;;;;;10436426;28;20332;-70
2023/05/19 09:52:04;;;;;;;2.73;2.50;;;16.80;33.70;;;;;;10432827;28;20703;-70
2023/05/19 09:57:09;;;;;;;3.20;2.50;;;16.80;33.70;;;;;;10437437;28;20771;-70
2023/05/19 10:02:19;;;;;;;2.83;2.33;;;16.90;33.50;;;;;;10444644;28;20964;-70
2023/05/19 10:07:24;;;;;;;2.60;2.40;;;16.90;33.20;;;;;;10440921;28;20229;-70
2023/05/19 10:12:30;;;;;;;2.60;2.40;;;16.90;33.70;;;;;;10445389;28;20650;-71
2023/05/19 10:17:35;;;;;;;2.53;2.33;;;17.00;33.30;;;;;;10444453;28;20861;-71
2023/05/19 10:22:39;;;;;;;3.23;2.50;;;17.00;33.60;;;;;;10446987;28;20251;-71
2023/05/19 10:27:48;;;;;;;2.33;2.10;;;17.10;33.30;;;;;;10441472;28;20225;-71
2023/05/19 10:32:55;;;;;;;3.33;2.40;;;17.10;33.60;;;;;;10446210;28;20278;-71
2023/05/19 10:38:11;;;;;;;3.33;2.47;;;17.20;34.70;;;;;;10450227;28;20229;-71
2023/05/19 10:43:25;;;;;;;3.30;2.50;;;17.30;33.60;;;;;;10416451;28;20326;-71
2023/05/19 10:48:33;;;;;;;3.13;2.60;;;17.50;33.30;;;;;;10432602;28;20252;-72
2023/05/19 10:53:45;;;;;;;3.20;2.40;;;17.60;33.10;;;;;;10429449;28;20242;-72
2023/05/19 10:58:52;;;;;;;2.60;2.40;;;17.70;33.20;;;;;;10457531;28;20347;-72
2023/05/19 11:03:56;;;;;;;3.07;2.43;;;17.80;33.00;;;;;;10466854;28;20243;-73
2023/05/19 11:09:04;;;;;;;2.73;2.37;;;17.90;33.30;;;;;;10430247;28;20236;-72
2023/05/19 11:14:12;;;;;;;3.53;2.33;;;18.10;33.00;;;;;;10436822;28;20291;-73
2023/05/19 11:19:25;;;;;;;3.80;2.33;;;18.10;32.50;;;;;;10441194;28;20264;-72
2023/05/19 11:24:36;;;;;;;4.30;2.40;;;18.20;32.90;;;;;;10451668;28;20236;-72
2023/05/19 11:29:41;;;;;;;3.60;2.20;;;18.30;32.70;;;;;;10432786;28;20237;-72
2023/05/19 11:34:49;;;;;;;2.37;2.17;;;18.40;32.50;;;;;;10453120;28;20236;-70
2023/05/19 11:39:58;;;;;;;2.40;2.20;;;18.50;32.80;;;;;;10454586;28;20842;-71
2023/05/19 11:45:04;;;;;;;3.50;2.43;;;18.60;32.90;;;;;;10444375;28;20252;-72
2023/05/19 11:50:11;;;;;;;2.83;2.30;;;18.70;32.70;;;;;;10461131;28;20232;-72
2023/05/19 11:55:16;;;;;;;4.13;2.50;;;18.70;33.00;;;;;;10439731;28;20224;-72
2023/05/19 12:00:23;;;;;;;2.30;2.10;;;18.70;32.70;;;;;;10450144;28;20323;-71
2023/05/19 12:05:28;;;;;;;2.50;2.27;;;18.80;32.70;;;;;;10448944;28;20240;-71
2023/05/19 12:10:32;;;;;;;3.80;2.63;;;18.90;32.70;;;;;;10444410;28;20292;-71
2023/05/19 12:15:37;;;;;;;2.43;2.23;;;19.00;32.80;;;;;;10422141;28;20750;-71
2023/05/19 12:20:41;;;;;;;2.53;2.20;;;19.10;32.60;;;;;;10442078;28;20233;-71
2023/05/19 12:25:45;;;;;;;2.83;2.20;;;19.20;32.90;;;;;;10454258;28;20909;-71
2023/05/19 12:30:51;;;;;;;2.67;2.43;;;19.40;32.90;;;;;;10457057;28;20336;-71
2023/05/19 12:35:55;;;;;;;3.53;2.40;;;19.50;32.80;;;;;;10454175;28;20239;-71
2023/05/19 12:40:59;;;;;;;2.73;2.27;;;19.70;32.70;;;;;;10449229;28;20229;-70
2023/05/19 12:46:11;;;;;;;2.60;2.20;;;19.80;32.10;;;;;;10445783;28;20673;-71
2023/05/19 12:51:18;;;;;;;2.63;2.07;;;19.90;31.90;;;;;;10447688;28;20271;-71
2023/05/19 12:56:23;;;;;;;3.30;2.33;;;20.00;31.70;;;;;;10446941;28;20242;-71
2023/05/19 13:01:30;;;;;;;2.17;2.07;;;20.10;31.90;;;;;;10462254;28;20228;-69
2023/05/19 13:06:33;;;;;;;2.23;2.10;;;20.20;31.60;;;;;;10443329;28;20236;-69
2023/05/19 13:11:37;;;;;;;3.33;2.10;;;20.20;31.90;;;;;;10461233;28;20307;-70
2023/05/19 13:16:42;;;;;;;2.57;2.00;;;20.20;31.70;;;;;;10459974;28;20236;-70
2023/05/19 13:21:46;;;;;;;4.13;2.20;;;20.30;31.60;;;;;;10457782;28;21212;-69
2023/05/19 13:26:50;;;;;;;2.67;2.47;;;20.20;31.50;;;;;;10443906;28;20240;-70
2023/05/19 13:31:57;;;;;;;2.50;2.17;;;20.30;31.40;;;;;;10448193;28;20318;-70
2023/05/19 13:37:03;;;;;;;2.20;2.00;;;20.20;31.20;;;;;;10445707;28;20239;-69
2023/05/19 13:42:08;;;;;;;2.80;1.90;;;20.30;31.50;;;;;;10438945;28;20708;-70
2023/05/19 13:47:13;;;;;;;2.57;2.37;;;20.30;31.50;;;;;;10445212;28;20224;-70
2023/05/19 13:52:16;;;;;;;2.67;2.47;;;20.40;31.00;;;;;;10443639;28;20225;-70
2023/05/19 13:57:19;;;;;;;5.60;2.30;;;20.40;31.30;;;;;;10443351;28;20224;-69
2023/05/19 14:02:24;;;;;;;3.27;2.30;;;20.40;31.30;;;;;;10439112;28;20596;-70
2023/05/19 14:07:28;;;;;;;2.73;2.23;;;20.50;31.20;;;;;;10441342;28;20237;-70
2023/05/19 14:12:33;;;;;;;4.70;2.40;;;20.60;31.30;;;;;;10439687;28;20235;-70
2023/05/19 14:17:59;;;;;;;2.27;1.90;;;20.60;31.20;;;;;;10442814;28;20243;-70
2023/05/19 14:23:02;;;;;;;2.13;1.93;;;20.70;31.10;;;;;;10438634;28;20279;-70
2023/05/19 14:28:06;;;;;;;2.37;2.17;;;20.80;31.30;;;;;;10443068;28;20232;-69
2023/05/19 14:33:10;;;;;;;3.30;2.20;;;20.90;31.00;;;;;;10444990;28;20947;-70
2023/05/19 14:38:14;;;;;;;2.67;2.00;;;21.00;30.80;;;;;;10442229;28;20242;-69
2023/05/19 14:43:18;;;;;;;2.87;2.27;;;21.00;31.10;;;;;;10446751;28;20224;-69
2023/05/19 14:48:23;;;;;;;2.63;2.10;;;21.10;30.60;;;;;;10434241;28;20236;-70
2023/05/19 14:53:26;;;;;;;3.13;2.20;;;21.20;30.40;;;;;;10437870;28;20736;-69
2023/05/19 14:58:29;;;;;;;2.77;2.00;;;21.20;30.70;;;;;;10435080;28;20230;-70
2023/05/19 15:03:34;;;;;;;2.63;2.37;;;21.30;30.70;;;;;;10435296;28;20967;-69
2023/05/19 15:08:39;;;;;;;2.37;1.90;;;21.40;30.40;;;;;;10438773;28;20774;-69
2023/05/19 15:13:42;;;;;;;2.33;2.13;;;21.50;30.40;;;;;;10444901;28;20229;-69
2023/05/19 15:18:47;;;;;;;3.90;2.30;;;21.50;30.50;;;;;;10437199;28;20225;-69
2023/05/19 15:23:50;;;;;;;2.17;2.00;;;21.50;30.10;;;;;;10433028;28;20237;-69
2023/05/19 15:28:53;;;;;;;2.20;2.00;;;21.60;30.30;;;;;;10428910;28;21200;-71
2023/05/19 15:33:58;;;;;;;2.23;2.03;;;21.60;31.10;;;;;;10429235;28;20239;-70
2023/05/19 15:39:02;;;;;;;2.40;2.10;;;21.60;30.00;;;;;;10426574;28;20744;-70
2023/05/19 15:44:06;;;;;;;2.73;2.53;;;21.60;30.00;;;;;;10433847;28;20607;-70
2023/05/19 15:49:11;;;;;;;2.07;1.97;;;21.60;30.10;;;;;;10444230;28;20239;-70
2023/05/19 15:54:15;;;;;;;2.20;2.07;;;21.70;30.00;;;;;;10436783;28;20307;-69
2023/05/19 15:59:18;;;;;;;2.73;2.43;;;21.70;29.90;;;;;;10433820;28;20233;-70
2023/05/19 16:04:23;;;;;;;2.40;2.20;;;21.80;30.00;;;;;;10435200;28;20271;-68
2023/05/19 16:09:26;;;;;;;2.20;1.70;;;21.80;29.90;;;;;;10427754;28;20599;-70
2023/05/19 16:14:35;;;;;;;2.10;2.00;;;21.80;30.00;;;;;;10434786;28;20239;-70
2023/05/19 16:19:39;;;;;;;2.53;2.10;;;21.80;30.00;;;;;;10434305;28;20236;-70
2023/05/19 16:24:42;;;;;;;2.50;2.30;;;21.80;29.80;;;;;;10429326;28;20228;-70
2023/05/19 16:29:46;;;;;;;2.20;2.00;;;21.80;29.90;;;;;;10437980;28;20244;-70
2023/05/19 16:34:50;;;;;;;2.00;1.90;;;21.80;30.00;;;;;;10433212;28;20225;-70
2023/05/19 16:39:53;;;;;;;2.93;2.13;;;21.80;29.90;;;;;;10431456;28;20235;-70
2023/05/19 16:44:56;;;;;;;2.10;2.00;;;21.80;30.00;;;;;;10434773;28;20236;-70
2023/05/19 16:50:01;;;;;;;3.73;2.10;;;21.80;30.00;;;;;;10433838;28;20227;-69
2023/05/19 16:55:05;;;;;;;2.63;2.13;;;21.80;29.90;;;;;;10440991;28;20307;-70
2023/05/19 17:00:09;;;;;;;2.30;2.10;;;21.80;30.00;;;;;;10435185;28;20228;-70
2023/05/19 17:05:14;;;;;;;2.87;2.07;;;21.80;29.80;;;;;;10436488;28;20348;-69
2023/05/19 17:10:17;;;;;;;2.70;1.97;;;21.90;30.00;;;;;;10441361;28;20286;-70
2023/05/19 17:15:20;;;;;;;2.13;1.93;;;21.90;30.00;;;;;;10438472;28;20231;-70
2023/05/19 17:20:25;;;;;;;2.17;2.00;;;21.90;30.00;;;;;;10443683;28;20241;-70
2023/05/19 17:25:28;;;;;;;1.90;1.80;;;21.90;30.00;;;;;;10444049;28;20347;-69
2023/05/19 17:30:33;;;;;;;2.20;2.00;;;22.10;30.10;;;;;;10442133;28;20237;-70
2023/05/19 18:07:49;;;;;;;3.83;2.00;;;21.90;29.40;;;;;;10414793;28;20636;-70
2023/05/19 18:12:52;;;;;;;2.00;1.90;;;21.80;29.40;;;;;;10434202;28;20220;-70
2023/05/19 18:17:55;;;;;;;2.10;2.00;;;21.70;29.60;;;;;;10429305;28;20233;-70
2023/05/19 18:23:00;;;;;;;1.93;1.80;;;21.60;29.60;;;;;;10434720;28;20228;-70
2023/05/19 18:28:04;;;;;;;2.43;2.07;;;21.50;29.60;;;;;;10447465;28;20877;-70
2023/05/19 18:33:07;;;;;;;2.43;2.23;;;21.50;29.80;;;;;;10447605;28;20225;-70
2023/05/19 18:38:12;;;;;;;2.80;1.93;;;21.40;29.90;;;;;;10438230;28;20232;-69
2023/05/19 18:43:15;;;;;;;2.03;1.90;;;21.40;29.90;;;;;;10437530;28;20887;-70
2023/05/19 18:48:20;;;;;;;2.10;2.00;;;21.40;30.00;;;;;;10426093;28;20225;-70
2023/05/19 18:53:25;;;;;;;2.87;2.00;;;21.30;29.90;;;;;;10437440;28;20258;-70
2023/05/19 18:58:28;;;;;;;3.13;1.93;;;21.20;29.80;;;;;;10431878;28;20278;-70
2023/05/19 19:03:31;;;;;;;2.10;2.00;;;21.10;29.80;;;;;;10434420;28;20290;-69
2023/05/19 19:08:36;;;;;;;2.53;2.30;;;21.00;29.80;;;;;;10424252;28;20286;-70
2023/05/19 19:13:39;;;;;;;2.23;2.10;;;20.90;29.90;;;;;;10428738;28;20300;-69
2023/05/19 19:18:43;;;;;;;2.10;1.90;;;20.80;29.90;;;;;;10421029;28;20224;-69
2023/05/19 19:23:48;;;;;;;2.40;2.20;;;20.80;30.00;;;;;;10439151;28;20217;-69
2023/05/19 19:28:51;;;;;;;2.20;2.00;;;20.70;30.10;;;;;;10443380;28;20708;-69
2023/05/19 19:33:57;;;;;;;2.00;1.90;;;20.60;30.10;;;;;;10438184;28;20602;-69
2023/05/19 19:39:02;;;;;;;2.10;2.00;;;20.50;30.20;;;;;;10447421;28;20229;-69
2023/05/19 19:44:05;;;;;;;2.07;1.97;;;20.40;30.20;;;;;;10452598;28;20216;-69
2023/05/19 19:49:08;;;;;;;2.03;1.90;;;20.30;30.30;;;;;;10442989;28;20230;-69
2023/05/19 19:54:13;;;;;;;2.57;1.97;;;20.30;30.50;;;;;;10445825;28;20221;-70
2023/05/19 19:59:16;;;;;;;2.43;2.23;;;20.20;30.50;;;;;;10446360;28;20572;-69
2023/05/19 20:04:19;;;;;;;2.73;2.17;;;20.20;30.50;;;;;;10445305;28;20283;-69
2023/05/19 20:09:24;;;;;;;2.17;2.03;;;20.10;30.60;;;;;;10442822;28;20239;-69
2023/05/19 20:14:28;;;;;;;3.10;2.17;;;20.10;30.90;;;;;;10449188;28;20236;-69
2023/05/19 20:19:31;;;;;;;2.13;2.03;;;20.10;30.90;;;;;;10441782;28;20224;-69
2023/05/19 20:24:36;;;;;;;2.00;1.90;;;20.00;31.00;;;;;;10435441;28;20296;-69
2023/05/19 20:29:39;;;;;;;2.13;1.93;;;20.00;31.20;;;;;;10435260;28;20228;-69
2023/05/19 20:34:42;;;;;;;3.77;2.03;;;19.90;31.10;;;;;;10439820;28;20728;-69
2023/05/19 20:39:47;;;;;;;2.67;2.47;;;19.90;31.10;;;;;;10439307;28;20618;-70
2023/05/19 20:44:51;;;;;;;4.63;2.13;;;19.80;31.20;;;;;;10439713;28;20736;-69
2023/05/19 20:49:54;;;;;;;1.90;1.80;;;19.80;31.10;;;;;;10437440;28;20331;-69
2023/05/19 20:54:59;;;;;;;3.27;2.23;;;19.70;31.20;;;;;;10442513;28;20708;-69
2023/05/19 21:00:02;;;;;;;2.30;2.10;;;19.70;31.30;;;;;;10448683;28;20312;-70
2023/05/19 21:05:06;;;;;;;2.23;2.10;;;19.70;31.30;;;;;;10447873;28;20315;-70
2023/05/19 21:10:12;;;;;;;2.30;2.10;;;19.60;31.40;;;;;;10448523;28;20233;-70
2023/05/19 21:15:16;;;;;;;2.50;2.30;;;19.60;31.80;;;;;;10447352;28;20316;-70
2023/05/19 21:20:19;;;;;;;2.30;2.20;;;19.50;31.60;;;;;;10447456;28;20243;-69
2023/05/19 21:25:24;;;;;;;2.33;2.23;;;19.50;31.70;;;;;;10446713;28;20315;-69
2023/05/19 21:30:27;;;;;;;2.33;2.23;;;19.50;31.90;;;;;;10446282;28;20249;-69
2023/05/19 21:35:30;;;;;;;2.40;2.20;;;19.50;31.70;;;;;;10446050;28;20336;-69
2023/05/19 21:40:35;;;;;;;2.27;2.07;;;19.50;31.80;;;;;;10446087;28;20237;-69
2023/05/19 21:45:38;;;;;;;2.10;2.00;;;19.40;31.90;;;;;;10445807;28;20725;-70
2023/05/19 21:50:41;;;;;;;2.27;2.13;;;19.40;31.90;;;;;;10447048;28;20244;-69
2023/05/19 21:55:46;;;;;;;2.13;2.03;;;19.40;32.10;;;;;;10446127;28;20236;-70
2023/05/19 22:00:49;;;;;;;2.33;2.13;;;19.30;32.30;;;;;;10446824;28;20243;-69
2023/05/19 22:05:54;;;;;;;2.20;2.10;;;19.30;32.30;;;;;;10482842;28;20233;-69
2023/05/19 22:10:59;;;;;;;2.50;2.30;;;19.30;32.40;;;;;;10487370;28;20740;-69
2023/05/19 22:16:03;;;;;;;2.30;2.20;;;19.30;32.50;;;;;;10486618;28;20231;-69
2023/05/19 22:21:08;;;;;;;2.63;2.43;;;19.30;32.40;;;;;;10487035;28;20315;-69
2023/05/19 22:26:13;;;;;;;2.43;2.30;;;19.20;32.50;;;;;;10486224;28;20547;-69
2023/05/19 22:31:16;;;;;;;2.73;2.53;;;19.20;32.70;;;;;;10454854;28;20721;-69
2023/05/19 22:36:19;;;;;;;2.37;2.20;;;19.20;32.70;;;;;;10444631;28;20225;-69
2023/05/19 22:41:24;;;;;;;2.70;2.47;;;19.10;32.70;;;;;;10445295;28;20665;-69
2023/05/19 22:46:27;;;;;;;2.57;2.37;;;19.10;32.70;;;;;;10445427;28;20249;-69
2023/05/19 22:51:32;;;;;;;2.20;2.10;;;19.10;32.50;;;;;;10445002;28;20248;-69
2023/05/19 22:56:36;;;;;;;2.40;2.20;;;19.00;32.50;;;;;;10444803;28;20323;-69
2023/05/19 23:01:39;;;;;;;2.23;2.10;;;18.90;32.70;;;;;;10444195;28;20309;-69
2023/05/19 23:06:43;;;;;;;2.77;2.10;;;18.80;32.50;;;;;;10444069;28;20713;-69
2023/05/19 23:11:48;;;;;;;1.97;1.87;;;18.70;32.40;;;;;;10444032;28;20235;-69
2023/05/19 23:16:51;;;;;;;2.10;1.90;;;18.60;32.60;;;;;;10444394;28;20931;-69
2023/05/19 23:21:54;;;;;;;2.10;2.00;;;18.50;32.50;;;;;;10443988;28;20233;-69
2023/05/19 23:26:59;;;;;;;2.20;2.10;;;18.50;32.70;;;;;;10444242;28;20241;-69
2023/05/19 23:32:02;;;;;;;2.40;2.20;;;18.40;33.00;;;;;;10444060;28;20245;-69
2023/05/19 23:37:06;;;;;;;3.27;2.13;;;18.30;33.00;;;;;;10444021;28;20296;-69
2023/05/19 23:42:11;;;;;;;2.63;2.43;;;18.20;33.00;;;;;;10442882;28;20264;-69
2023/05/19 23:47:15;;;;;;;3.20;2.30;;;18.20;33.20;;;;;;10443000;28;20229;-69
2023/05/19 23:52:18;;;;;;;2.73;2.20;;;18.10;33.00;;;;;;10444378;28;20224;-69
2023/05/19 23:57:22;;;;;;;2.33;2.20;;;18.10;33.20;;;;;;10443334;28;20713;-69
